Main page
METAR-TAF:

METAR-TAF

Airports :

Hof–Plauen Airport

Hof, Germany

latitude: 50-19N, longitude: 011-53E, elevation: 567 m

Current weather observation

The report was made 10 hours and 9 minutes ago, at 18:50 UTC
Wind 14 kt from the West/Southwest
Temperature 1°C
Humidity 93%
Pressure 1013 hPa
Visibility: 9000 m
Overcast at a height of 1000 ft
light drizzle

METAR: EDQM 151850Z 25014KT 9000 -DZ OVC010 01/M00 Q1013

Time: 05:59 (04:59 UTC)

Forecast

The report was made 11 hours and 59 minutes ago, at 17:00 UTC
Forecast valid from 15 at 18 UTC to 16 at 03 UTC
Wind 12 kt from the West/Southwest
Visibility: 6000 m
Broken clouds at a height of 2000 ft
Temporary
from 15 at 18 UTC to 16 at 03 UTC
Visibility: 2000 m
Broken clouds at a height of 500 ft
(light) snow grains, drizzle

TAF: EDQM 151700Z 1518/1603 25012KT 6000 BKN020 TEMPO 1518/1603 2000 -SGDZ BKN005

Weather observations and forecasts of more than 4000 airports (METAR and TAF reports).

The available stations are represented by yellow and red dots on the map.

Hover mouse over dot to see the name of the station.

Then click to see weather observations and forecasts.

To change the map : click on the green buttons with a black cross to zoom in, on the green button with a dash to zoom out, or on the green arrows for adjacent maps.


METAR-TAF: